Time;durP1;ratioP1;P1;durP2;ratioP2;P2;SDS_P1;SDS_P2;PMS_P1;PMS_P2;Temp;Humidity;BMP_temperature;BMP_pressure;BME280_temperature;BME280_humidity;BME280_pressure;Samples;Min_cycle;Max_cycle;Signal;HPM_P1;HPM_P2
2022/01/29 00:02:09;;;;;;;10.05;5.10;;;;;;;1.26;78.96;97298.25;5027936;28;20056;-49
2022/01/29 00:04:36;;;;;;;11.82;5.05;;;;;;;1.26;78.60;97282.25;5029936;28;20407;-55
2022/01/29 00:07:04;;;;;;;8.73;4.72;;;;;;;1.50;78.08;97277.63;5012783;28;20046;-51
2022/01/29 00:09:31;;;;;;;11.18;5.50;;;;;;;1.17;79.62;97269.31;5030706;28;20045;-50
2022/01/29 00:11:57;;;;;;;10.10;5.10;;;;;;;1.38;78.63;97265.13;5017084;28;20047;-50
2022/01/29 00:14:24;;;;;;;9.77;5.13;;;;;;;1.52;78.11;97268.31;5029947;28;20045;-49
2022/01/29 00:16:51;;;;;;;7.28;4.70;;;;;;;1.09;79.27;97260.88;5013097;28;20053;-52
2022/01/29 00:19:18;;;;;;;13.45;6.38;;;;;;;1.24;78.98;97252.38;5015304;28;20450;-47
2022/01/29 00:21:45;;;;;;;9.68;5.13;;;;;;;1.30;78.23;97249.56;5013053;28;20125;-48
2022/01/29 00:24:12;;;;;;;9.23;4.93;;;;;;;1.37;78.24;97244.06;5011598;28;20046;-50
2022/01/29 00:26:39;;;;;;;11.88;5.13;;;;;;;1.32;78.11;97239.44;5012039;28;20133;-52
2022/01/29 00:29:16;;;;;;;9.40;4.80;;;;;;;1.29;78.56;97239.91;5013006;28;20073;-53
2022/01/29 00:31:43;;;;;;;9.90;5.28;;;;;;;1.15;78.26;97231.41;5029160;28;20072;-54
2022/01/29 00:34:10;;;;;;;9.55;5.53;;;;;;;1.21;78.79;97239.53;5010070;28;20132;-53
2022/01/29 00:36:37;;;;;;;8.93;5.07;;;;;;;0.84;80.22;97227.38;5025275;28;20069;-51
2022/01/29 00:39:05;;;;;;;10.60;5.35;;;;;;;1.33;78.32;97218.91;5033249;28;20048;-53
2022/01/29 00:41:32;;;;;;;9.38;4.75;;;;;;;0.90;80.29;97213.09;5021664;28;20042;-52
2022/01/29 00:44:00;;;;;;;12.43;4.97;;;;;;;1.43;78.27;97205.78;5014126;28;20052;-55
2022/01/29 00:46:26;;;;;;;11.35;4.97;;;;;;;1.45;77.47;97205.50;5014542;28;20042;-53
2022/01/29 00:48:53;;;;;;;11.88;5.03;;;;;;;0.82;80.66;97212.69;5016575;28;20073;-52
2022/01/29 00:51:21;;;;;;;9.23;5.05;;;;;;;0.77;81.17;97204.59;5033887;28;20052;-50
2022/01/29 00:53:48;;;;;;;9.07;5.47;;;;;;;1.03;80.18;97212.00;5032036;22;20510;-48
2022/01/29 00:56:15;;;;;;;11.00;5.05;;;;;;;1.35;78.74;97209.63;5014564;28;20125;-49
2022/01/29 00:58:43;;;;;;;16.73;7.18;;;;;;;1.52;77.87;97204.28;4996996;28;20076;-49
2022/01/29 01:01:10;;;;;;;8.70;5.28;;;;;;;1.12;79.45;97199.09;5014424;28;20386;-49
2022/01/29 01:03:37;;;;;;;9.18;5.32;;;;;;;1.43;78.11;97197.75;4997397;28;20050;-48
2022/01/29 01:06:04;;;;;;;8.65;4.97;;;;;;;0.89;80.06;97198.19;5016229;28;20034;-49
2022/01/29 01:08:31;;;;;;;13.23;5.68;;;;;;;1.21;78.93;97191.53;5015297;28;20049;-50
2022/01/29 01:10:58;;;;;;;10.80;4.97;;;;;;;1.31;78.24;97192.50;5013811;28;20062;-49
2022/01/29 01:13:26;;;;;;;11.20;5.30;;;;;;;1.39;77.80;97189.41;5014124;28;20049;-51
2022/01/29 01:15:52;;;;;;;9.48;5.25;;;;;;;1.38;77.70;97179.81;5013819;28;20042;-46
2022/01/29 01:18:19;;;;;;;10.32;5.55;;;;;;;1.22;78.60;97163.81;5014212;28;20053;-48
2022/01/29 01:20:46;;;;;;;10.68;6.13;;;;;;;1.16;78.69;97158.38;4999831;28;20085;-46
2022/01/29 01:23:13;;;;;;;11.90;5.65;;;;;;;1.22;79.08;97171.81;5013542;28;20046;-47
2022/01/29 01:25:40;;;;;;;10.43;5.30;;;;;;;1.28;78.55;97168.97;5013926;28;20038;-48
2022/01/29 01:28:07;;;;;;;12.48;5.88;;;;;;;1.03;79.20;97166.69;5014148;28;20589;-46
2022/01/29 01:30:36;;;;;;;8.27;4.97;;;;;;;1.19;79.22;97172.28;5013501;28;20042;-50
2022/01/29 01:33:04;;;;;;;13.85;5.65;;;;;;;1.30;78.39;97163.41;5013652;28;20054;-48
2022/01/29 01:35:38;;;;;;;11.13;6.13;;;;;;;1.13;78.55;97150.06;5013855;28;20049;-45
2022/01/29 01:40:44;;;;;;;10.32;5.38;;;;;;;1.48;77.98;97144.50;4994911;28;20060;-47
2022/01/29 01:43:11;;;;;;;10.50;5.45;;;;;;;1.42;77.80;97139.31;5009416;28;20052;-45
2022/01/29 01:45:38;;;;;;;10.73;5.65;;;;;;;1.54;77.65;97130.19;5013421;28;20045;-47
2022/01/29 01:48:06;;;;;;;9.48;5.45;;;;;;;1.58;77.34;97128.63;5010937;28;20034;-46
2022/01/29 01:50:34;;;;;;;11.05;5.25;;;;;;;1.49;77.36;97110.63;4993710;28;20137;-49
2022/01/29 01:53:03;;;;;;;9.88;5.60;;;;;;;1.56;77.56;97120.09;5012137;28;20058;-49
2022/01/29 01:55:31;;;;;;;11.25;6.22;;;;;;;1.56;77.23;97122.75;5013359;28;20042;-47
2022/01/29 01:57:58;;;;;;;10.38;5.40;;;;;;;1.51;77.70;97125.34;5012356;28;20129;-48
2022/01/29 02:00:26;;;;;;;13.07;6.53;;;;;;;1.46;77.79;97111.91;5013516;28;20053;-47
2022/01/29 02:02:54;;;;;;;13.63;6.43;;;;;;;1.58;77.32;97112.63;5002964;28;20050;-48
2022/01/29 02:05:21;;;;;;;10.43;5.60;;;;;;;1.63;76.77;97101.22;4993436;28;20458;-46
2022/01/29 02:07:48;;;;;;;10.48;5.75;;;;;;;1.02;79.08;97098.47;5009302;28;20045;-47
2022/01/29 02:10:18;;;;;;;10.77;5.97;;;;;;;1.36;78.11;97107.22;5012978;28;21852;-49
2022/01/29 02:12:53;;;;;;;8.40;5.38;;;;;;;1.38;77.92;97099.00;5011699;28;20042;-47
2022/01/29 02:15:22;;;;;;;10.07;4.97;;;;;;;0.97;79.48;97100.22;5013114;28;20136;-46
2022/01/29 02:17:49;;;;;;;9.10;5.32;;;;;;;1.33;78.16;97089.09;5012866;28;20085;-49
2022/01/29 02:20:22;;;;;;;10.02;5.63;;;;;;;1.41;77.40;97082.53;5011722;28;20502;-47
2022/01/29 02:22:50;;;;;;;10.82;5.50;;;;;;;1.44;77.44;97076.69;5006481;28;20137;-48
2022/01/29 02:25:37;;;;;;;9.07;4.95;;;;;;;1.28;78.12;97072.19;5007373;28;20048;-46
2022/01/29 02:28:04;;;;;;;14.05;5.25;;;;;;;0.96;79.32;97066.66;4993552;28;20125;-51
2022/01/29 02:30:33;;;;;;;12.30;5.50;;;;;;;0.96;79.23;97070.13;4993429;28;20487;-48
2022/01/29 02:33:06;;;;;;;9.98;5.40;;;;;;;0.85;79.22;97063.81;5005764;28;20042;-50
2022/01/29 02:35:36;;;;;;;12.18;5.00;;;;;;;1.05;78.69;97067.88;5011856;28;20056;-48
2022/01/29 02:38:03;;;;;;;11.02;5.07;;;;;;;1.07;78.87;97061.25;5012851;28;20050;-48
2022/01/29 02:40:35;;;;;;;10.48;5.30;;;;;;;1.32;77.41;97057.31;5012717;28;20145;-51
2022/01/29 02:43:25;;;;;;;10.75;6.53;;;;;;;1.19;78.37;97053.13;4999936;28;20042;-45
2022/01/29 02:45:53;;;;;;;13.00;5.10;;;;;;;1.24;77.78;97055.88;5009710;28;20053;-47
2022/01/29 02:48:21;;;;;;;9.60;5.05;;;;;;;0.99;78.27;97050.19;5012759;28;20046;-49
2022/01/29 02:50:50;;;;;;;9.93;5.32;;;;;;;0.77;79.78;97055.41;5012224;28;20060;-48
2022/01/29 02:53:17;;;;;;;10.23;4.60;;;;;;;1.03;78.03;97054.75;5011871;28;20481;-46
2022/01/29 02:55:44;;;;;;;9.27;5.15;;;;;;;1.01;79.07;97048.88;4994338;28;20064;-47
2022/01/29 02:58:11;;;;;;;9.02;5.35;;;;;;;1.15;77.73;97057.34;5012610;28;20056;-48
2022/01/29 03:00:38;;;;;;;10.95;5.15;;;;;;;1.27;77.58;97065.22;5011859;28;20060;-48
2022/01/29 03:03:05;;;;;;;7.00;4.70;;;;;;;0.43;80.98;97064.19;4993300;28;20055;-50
2022/01/29 03:05:32;;;;;;;12.68;5.68;;;;;;;1.02;78.69;97069.16;4994806;28;20488;-50
2022/01/29 03:07:59;;;;;;;11.50;4.93;;;;;;;1.37;77.44;97058.22;5012133;28;20053;-44
2022/01/29 03:10:28;;;;;;;10.95;5.28;;;;;;;1.49;76.61;97046.59;5011787;28;20052;-48
2022/01/29 03:12:55;;;;;;;10.95;5.47;;;;;;;1.45;76.49;97030.28;4992507;28;20108;-49
2022/01/29 03:15:22;;;;;;;11.55;5.28;;;;;;;1.49;76.44;97028.75;4992514;28;20392;-50
2022/01/29 03:17:49;;;;;;;11.32;5.85;;;;;;;1.39;76.62;97017.94;5011907;28;20084;-46
2022/01/29 03:20:16;;;;;;;11.65;5.38;;;;;;;1.32;77.21;97025.31;5011849;28;20038;-49
2022/01/29 03:22:43;;;;;;;9.00;5.25;;;;;;;1.29;76.60;97020.47;5010993;28;20136;-46
2022/01/29 03:25:10;;;;;;;13.30;5.65;;;;;;;1.15;77.51;97010.16;5011702;28;20038;-49
2022/01/29 03:27:37;;;;;;;8.18;4.57;;;;;;;0.31;81.32;97018.19;5011820;28;20045;-46
2022/01/29 03:30:06;;;;;;;10.20;5.25;;;;;;;0.54;80.89;97022.56;5012009;28;20046;-50
2022/01/29 03:32:33;;;;;;;8.85;4.75;;;;;;;0.57;80.58;97026.59;5005625;28;20607;-48
2022/01/29 03:35:00;;;;;;;10.07;4.50;;;;;;;0.22;81.33;97009.78;5011957;28;20052;-48
2022/01/29 03:37:27;;;;;;;10.45;4.93;;;;;;;0.79;79.86;97010.72;5012075;28;20452;-48
2022/01/29 03:39:59;;;;;;;10.52;4.80;;;;;;;0.56;80.62;97004.50;5011572;28;20041;-48
2022/01/29 03:42:28;;;;;;;9.75;5.03;;;;;;;0.87;78.75;97008.41;5011672;28;20069;-49
2022/01/29 03:44:57;;;;;;;11.60;4.75;;;;;;;0.86;78.87;97006.00;5011413;28;20057;-48
2022/01/29 03:47:24;;;;;;;8.52;4.53;;;;;;;0.36;80.93;97009.50;5011703;28;20042;-47
2022/01/29 03:49:51;;;;;;;8.50;4.72;;;;;;;0.52;79.92;97006.03;4984242;28;20128;-48
2022/01/29 03:52:18;;;;;;;12.27;5.00;;;;;;;0.63;80.59;97002.47;5005774;28;20125;-46
2022/01/29 03:54:45;;;;;;;8.75;5.03;;;;;;;0.89;78.56;96987.69;5011429;28;20068;-47
2022/01/29 03:57:12;;;;;;;9.80;5.18;;;;;;;0.25;81.25;97000.50;5011754;28;20052;-47
2022/01/29 03:59:39;;;;;;;8.93;4.50;;;;;;;0.68;80.52;97004.41;5011847;28;20056;-50
2022/01/29 04:02:05;;;;;;;8.43;4.80;;;;;;;1.15;77.80;96999.50;5010605;28;20038;-47
2022/01/29 04:04:32;;;;;;;7.90;4.25;;;;;;;1.00;78.39;96993.16;5011209;28;20119;-49
2022/01/29 04:07:05;;;;;;;9.73;5.15;;;;;;;0.80;78.95;96989.13;5011709;28;20134;-49
2022/01/29 04:09:33;;;;;;;7.15;4.43;;;;;;;0.75;79.29;96981.09;5011270;28;20042;-46
2022/01/29 04:12:00;;;;;;;10.63;4.88;;;;;;;0.36;81.33;96980.22;5010929;28;20046;-46
2022/01/29 04:14:37;;;;;;;10.60;4.72;;;;;;;0.58;80.73;96967.75;5014102;28;20492;-48
2022/01/29 04:17:05;;;;;;;10.07;4.47;;;;;;;0.80;79.44;96965.16;5015381;28;20041;-46
2022/01/29 04:19:32;;;;;;;9.82;5.03;;;;;;;1.03;78.27;96963.34;5015189;28;20038;-48
2022/01/29 04:21:59;;;;;;;8.63;5.10;;;;;;;0.52;80.49;96957.28;5014997;28;20042;-47
2022/01/29 04:24:27;;;;;;;9.45;4.75;;;;;;;0.35;81.68;96973.25;4997293;28;20070;-48
2022/01/29 04:26:54;;;;;;;8.43;4.80;;;;;;;0.93;79.04;96958.69;4997337;28;20121;-49
2022/01/29 04:29:22;;;;;;;8.27;4.40;;;;;;;0.47;81.13;96956.16;5015504;28;20479;-47
2022/01/29 04:34:22;;;;;;;9.80;4.90;;;;;;;0.56;80.94;96953.91;5014878;28;20132;-49
2022/01/29 04:36:49;;;;;;;9.50;5.45;;;;;;;1.00;79.05;96947.84;5015721;28;20057;-47
2022/01/29 04:39:16;;;;;;;10.70;5.47;;;;;;;1.19;77.92;96951.84;5014871;28;20046;-49
2022/01/29 04:41:43;;;;;;;7.65;4.78;;;;;;;0.97;78.53;96949.16;5014788;28;20442;-50
2022/01/29 04:44:10;;;;;;;10.45;5.07;;;;;;;1.07;78.04;96954.63;5014602;28;20080;-50
2022/01/29 04:46:37;;;;;;;9.27;4.72;;;;;;;1.15;78.23;96950.72;5014876;28;20076;-48
2022/01/29 04:49:04;;;;;;;10.45;5.45;;;;;;;1.22;77.59;96966.53;5005691;28;20125;-48
2022/01/29 04:51:31;;;;;;;9.88;5.25;;;;;;;0.99;78.67;96963.03;5014769;28;20050;-47
2022/01/29 04:53:58;;;;;;;8.80;4.93;;;;;;;1.04;77.87;96960.47;5002822;28;20044;-46
2022/01/29 04:56:25;;;;;;;9.52;5.68;;;;;;;1.15;77.67;96956.88;5014309;28;20046;-49
2022/01/29 04:58:52;;;;;;;10.90;5.15;;;;;;;1.02;78.47;96943.91;5014444;28;20049;-48
2022/01/29 05:01:19;;;;;;;7.75;4.45;;;;;;;1.17;78.06;96953.97;5014211;28;20048;-48
2022/01/29 05:03:46;;;;;;;7.18;4.43;;;;;;;0.93;78.67;96956.81;5013763;28;20132;-50
2022/01/29 05:06:16;;;;;;;9.02;4.43;;;;;;;1.17;77.87;96959.28;5014251;28;20066;-47
2022/01/29 05:08:43;;;;;;;9.18;4.65;;;;;;;1.27;77.07;96945.25;5014222;28;20052;-49
2022/01/29 05:11:10;;;;;;;8.25;4.97;;;;;;;0.78;79.13;96953.97;5013856;28;20046;-47
2022/01/29 05:13:39;;;;;;;9.98;4.22;;;;;;;0.88;78.40;96942.66;4996477;28;20121;-50
2022/01/29 05:16:34;;;;;;;9.48;5.07;;;;;;;1.15;77.30;96962.19;5013960;28;20133;-47
2022/01/29 05:27:16;;;;;;;9.85;4.72;;;;;;;1.04;78.25;96944.47;5021921;28;20145;-51
2022/01/29 05:29:43;;;;;;;10.27;5.10;;;;;;;1.01;78.53;96942.28;5021829;28;20049;-47
2022/01/29 05:32:12;;;;;;;9.18;5.00;;;;;;;1.07;77.69;96941.31;5021238;28;20045;-51
2022/01/29 05:34:40;;;;;;;9.90;5.22;;;;;;;1.01;78.38;96942.28;5018670;28;20042;-48
2022/01/29 05:37:27;;;;;;;9.88;5.40;;;;;;;0.91;78.65;96936.81;5014172;28;20069;-45
2022/01/29 05:39:54;;;;;;;8.75;4.75;;;;;;;0.56;79.76;96935.25;5008403;28;20070;-47
2022/01/29 05:42:21;;;;;;;11.02;5.50;;;;;;;1.06;77.91;96923.69;4994026;28;20050;-46
2022/01/29 05:44:48;;;;;;;9.70;5.00;;;;;;;0.95;77.99;96927.28;5005972;28;20049;-51
2022/01/29 05:47:15;;;;;;;9.80;5.30;;;;;;;0.83;79.27;96921.25;5013701;28;20048;-48
2022/01/29 05:49:41;;;;;;;7.80;4.97;;;;;;;0.77;79.20;96924.88;4997156;28;20056;-53
2022/01/29 05:52:09;;;;;;;9.45;5.05;;;;;;;0.80;79.20;96919.88;5002779;28;20045;-49
2022/01/29 05:54:36;;;;;;;9.00;4.90;;;;;;;0.42;80.44;96926.81;5012815;28;20049;-49
2022/01/29 05:57:03;;;;;;;9.65;4.63;;;;;;;1.14;78.16;96917.94;5013239;28;20476;-51
2022/01/29 05:59:34;;;;;;;10.07;4.90;;;;;;;1.06;78.37;96921.03;5013665;28;20046;-50
2022/01/29 06:02:02;;;;;;;8.85;5.40;;;;;;;1.14;77.66;96917.94;5012833;28;20050;-50
2022/01/29 06:04:29;;;;;;;9.85;5.07;;;;;;;0.96;78.69;96928.88;4993988;28;20125;-50
2022/01/29 06:06:56;;;;;;;9.70;5.38;;;;;;;0.85;78.80;96924.50;5000895;28;20042;-49
2022/01/29 06:09:23;;;;;;;8.00;5.07;;;;;;;0.37;80.36;96929.38;5013450;28;20052;-47
2022/01/29 06:11:49;;;;;;;11.05;5.53;;;;;;;0.79;79.71;96920.94;5010229;28;20063;-46
2022/01/29 06:14:16;;;;;;;8.07;4.90;;;;;;;0.44;80.40;96923.88;4993281;28;20077;-45
2022/01/29 06:16:43;;;;;;;11.32;5.47;;;;;;;0.70;79.70;96923.22;4998369;28;20523;-45
2022/01/29 06:19:10;;;;;;;9.68;5.07;;;;;;;0.82;79.12;96930.31;4996020;28;20365;-50
2022/01/29 06:21:38;;;;;;;7.15;4.38;;;;;;;0.99;78.26;96932.94;5012253;28;20048;-49
2022/01/29 06:24:05;;;;;;;7.97;5.00;;;;;;;1.15;77.37;96932.06;5012021;28;20099;-49
2022/01/29 06:26:32;;;;;;;9.77;4.70;;;;;;;0.72;78.54;96930.97;4995408;28;20037;-48
2022/01/29 06:28:59;;;;;;;10.05;4.97;;;;;;;0.56;80.24;96923.81;5013013;28;20125;-48
2022/01/29 06:31:26;;;;;;;9.32;4.65;;;;;;;0.92;77.82;96922.44;5013330;28;20046;-47
2022/01/29 06:33:53;;;;;;;8.18;4.35;;;;;;;0.76;78.60;96925.94;4991987;28;20397;-51
2022/01/29 06:36:20;;;;;;;8.10;4.25;;;;;;;1.17;76.88;96920.13;4992431;28;20048;-52
2022/01/29 06:38:47;;;;;;;7.85;4.38;;;;;;;1.10;76.42;96921.34;5013127;28;20052;-51
2022/01/29 06:41:14;;;;;;;7.53;3.75;;;;;;;1.30;76.11;96915.44;4995994;28;20521;-48
2022/01/29 06:43:41;;;;;;;6.55;3.97;;;;;;;1.24;75.96;96897.81;4996642;28;20046;-48
2022/01/29 06:46:08;;;;;;;7.93;4.45;;;;;;;1.37;75.32;96905.41;4993145;28;20038;-49
2022/01/29 06:48:35;;;;;;;6.50;3.67;;;;;;;1.11;75.79;96904.31;5010409;28;20049;-51
2022/01/29 06:51:02;;;;;;;9.10;4.55;;;;;;;1.30;75.01;96902.13;4987921;28;20199;-50
2022/01/29 06:53:28;;;;;;;7.20;4.00;;;;;;;0.97;76.21;96919.84;5010682;23;20154;-48
2022/01/29 06:55:55;;;;;;;7.47;4.03;;;;;;;1.21;74.86;96914.28;4994560;28;20041;-48
2022/01/29 06:58:22;;;;;;;8.48;4.20;;;;;;;1.28;75.00;96914.91;5011715;28;20494;-54
2022/01/29 07:01:09;;;;;;;7.68;4.00;;;;;;;1.27;74.64;96910.59;5007922;28;20054;-49
2022/01/29 07:03:36;;;;;;;8.02;3.85;;;;;;;1.33;73.71;96904.28;4999721;28;20042;-47
2022/01/29 07:06:04;;;;;;;9.15;3.78;;;;;;;1.10;75.31;96898.16;5011566;28;20085;-48
2022/01/29 07:08:34;;;;;;;8.77;3.70;;;;;;;1.36;73.62;96887.78;4994551;28;20044;-52
2022/01/29 07:11:01;;;;;;;8.40;4.07;;;;;;;1.56;73.72;96885.34;4997540;28;20072;-52
2022/01/29 07:13:28;;;;;;;7.32;3.90;;;;;;;1.69;72.63;96883.31;4998048;28;20042;-54
2022/01/29 07:15:55;;;;;;;9.52;4.00;;;;;;;1.88;72.28;96873.91;5011349;28;20046;-51
2022/01/29 07:18:22;;;;;;;5.57;3.67;;;;;;;1.62;72.28;96873.66;5009660;28;20038;-51
2022/01/29 07:20:49;;;;;;;6.80;3.88;;;;;;;1.23;73.99;96872.19;4992118;28;20046;-49
2022/01/29 07:23:16;;;;;;;5.47;3.00;;;;;;;1.32;73.40;96876.03;4995622;28;20050;-49
2022/01/29 07:25:43;;;;;;;5.55;3.67;;;;;;;1.45;73.62;96869.50;5011120;28;20067;-49
2022/01/29 07:28:09;;;;;;;6.20;3.10;;;;;;;1.52;72.74;96876.22;5011111;28;20117;-51
2022/01/29 07:30:37;;;;;;;6.70;3.10;;;;;;;1.37;71.88;96873.41;5007835;28;21000;-48
2022/01/29 07:33:04;;;;;;;7.22;3.13;;;;;;;1.45;72.16;96875.63;4994060;28;20050;-50
2022/01/29 07:35:31;;;;;;;6.57;3.00;;;;;;;1.67;72.16;96867.59;5011113;28;20045;-51
2022/01/29 07:37:58;;;;;;;6.82;3.00;;;;;;;1.83;71.49;96879.22;5010984;28;20142;-51
2022/01/29 07:40:25;;;;;;;8.07;3.00;;;;;;;1.70;71.74;96885.75;5004770;28;20133;-50
2022/01/29 07:42:51;;;;;;;4.82;2.60;;;;;;;1.69;70.13;96889.50;4991680;28;20145;-49
2022/01/29 07:45:18;;;;;;;4.93;2.88;;;;;;;1.55;71.55;96896.25;5011120;28;20081;-49
2022/01/29 07:47:45;;;;;;;4.97;2.75;;;;;;;2.09;70.65;96894.38;5007124;28;20592;-56
2022/01/29 07:50:12;;;;;;;5.68;3.13;;;;;;;2.37;69.94;96897.78;5010521;28;20105;-54
2022/01/29 07:52:39;;;;;;;7.20;3.75;;;;;;;2.48;69.61;96894.16;5005415;28;20081;-55
2022/01/29 07:55:07;;;;;;;6.88;3.45;;;;;;;2.09;70.22;96890.91;4990974;28;20136;-48
2022/01/29 07:57:34;;;;;;;4.47;2.78;;;;;;;2.37;69.80;96892.47;4993143;28;20089;-53
2022/01/29 08:00:03;;;;;;;6.28;3.20;;;;;;;2.58;69.09;96888.06;5011500;28;20116;-52
2022/01/29 08:02:39;;;;;;;6.10;2.95;;;;;;;2.71;68.30;96894.84;4992794;28;20117;-52
2022/01/29 08:05:07;;;;;;;10.43;5.28;;;;;;;2.69;68.51;96891.59;5010538;28;20513;-51
2022/01/29 08:07:34;;;;;;;7.47;3.50;;;;;;;2.61;68.40;96894.78;4993570;28;20042;-51
2022/01/29 08:10:01;;;;;;;5.68;3.03;;;;;;;2.31;68.87;96888.97;4992037;28;20050;-51
2022/01/29 08:12:28;;;;;;;6.90;3.22;;;;;;;2.54;68.93;96890.47;4993359;28;20446;-50
2022/01/29 08:14:55;;;;;;;5.63;2.78;;;;;;;2.31;68.38;96888.16;5010313;28;20485;-53
2022/01/29 08:17:22;;;;;;;6.90;2.90;;;;;;;2.27;68.08;96881.69;5007319;28;20567;-52
2022/01/29 08:19:49;;;;;;;5.05;2.85;;;;;;;2.13;69.58;96880.53;4991409;28;20050;-51
2022/01/29 08:22:17;;;;;;;5.70;3.08;;;;;;;2.37;69.35;96891.66;4973855;28;20579;-49
2022/01/29 08:24:44;;;;;;;7.53;3.50;;;;;;;2.30;68.28;96884.66;4991044;28;20058;-56
2022/01/29 08:27:12;;;;;;;7.28;3.53;;;;;;;2.51;69.15;96882.97;5006747;28;20053;-50
2022/01/29 08:29:38;;;;;;;5.63;2.83;;;;;;;2.78;68.40;96872.16;5010985;28;20092;-51
2022/01/29 08:32:06;;;;;;;6.03;2.88;;;;;;;2.47;67.09;96865.84;5005705;28;20069;-51
2022/01/29 08:34:33;;;;;;;4.65;2.90;;;;;;;2.85;68.02;96855.88;5010596;28;20061;-49
2022/01/29 08:37:04;;;;;;;7.22;3.03;;;;;;;2.99;67.98;96851.69;5010082;28;20042;-51
2022/01/29 08:39:32;;;;;;;5.30;2.97;;;;;;;3.25;66.91;96865.13;4994999;28;20139;-51
2022/01/29 08:41:59;;;;;;;5.28;3.10;;;;;;;2.95;66.72;96861.28;5004183;28;20050;-51
2022/01/29 08:44:26;;;;;;;7.15;3.38;;;;;;;2.82;66.01;96861.75;5010239;28;20060;-48
2022/01/29 08:46:53;;;;;;;6.00;3.10;;;;;;;3.12;65.34;96854.94;5010274;28;20109;-50
2022/01/29 08:49:20;;;;;;;5.00;2.80;;;;;;;2.73;67.40;96856.13;5008322;28;20073;-50
2022/01/29 08:51:48;;;;;;;5.47;2.85;;;;;;;2.92;66.99;96855.66;5010731;28;20046;-50
2022/01/29 08:54:14;;;;;;;6.38;2.67;;;;;;;2.72;66.24;96862.50;4992075;28;20046;-50
2022/01/29 08:56:41;;;;;;;5.38;2.50;;;;;;;2.57;67.78;96855.22;4991226;28;20149;-50
2022/01/29 08:59:08;;;;;;;5.55;2.88;;;;;;;3.07;66.46;96860.28;5002007;28;20076;-53
2022/01/29 09:01:35;;;;;;;4.35;2.67;;;;;;;3.15;65.58;96860.59;4998645;28;20129;-55
2022/01/29 09:04:03;;;;;;;5.43;2.78;;;;;;;3.28;65.58;96861.94;5002829;28;20092;-50
2022/01/29 09:06:30;;;;;;;5.53;2.58;;;;;;;3.15;65.37;96867.78;5013672;28;20404;-51
2022/01/29 09:08:58;;;;;;;4.78;2.60;;;;;;;3.12;65.96;96853.09;5010296;28;20045;-55
2022/01/29 09:11:25;;;;;;;5.93;2.70;;;;;;;3.22;66.08;96841.63;5009177;28;20092;-50
2022/01/29 09:13:52;;;;;;;6.75;2.90;;;;;;;2.91;64.73;96838.00;5019876;28;20050;-50
2022/01/29 09:16:19;;;;;;;5.38;2.83;;;;;;;3.16;65.84;96856.84;5013369;28;20033;-50
2022/01/29 09:18:46;;;;;;;6.03;2.85;;;;;;;3.22;65.01;96855.00;5008742;28;20052;-53
2022/01/29 09:21:13;;;;;;;4.03;2.25;;;;;;;3.38;64.58;96845.13;5013426;28;20447;-52
2022/01/29 09:23:41;;;;;;;4.18;2.55;;;;;;;3.28;64.27;96832.53;5011091;28;20513;-52
2022/01/29 09:26:08;;;;;;;6.20;2.20;;;;;;;3.26;64.31;96830.13;5010393;28;20407;-52
2022/01/29 09:28:35;;;;;;;5.03;2.38;;;;;;;3.38;63.93;96824.56;5013779;28;20563;-53
2022/01/29 09:31:02;;;;;;;4.97;2.55;;;;;;;3.14;63.10;96826.88;5012981;28;20104;-54
2022/01/29 09:33:29;;;;;;;5.20;2.38;;;;;;;3.28;64.13;96828.00;5003559;28;20038;-49
2022/01/29 09:35:56;;;;;;;4.05;2.42;;;;;;;2.92;63.43;96829.72;5013461;28;20422;-52
2022/01/29 09:38:23;;;;;;;4.20;2.17;;;;;;;3.03;62.26;96825.25;5013179;28;20124;-51
2022/01/29 09:40:50;;;;;;;4.30;2.20;;;;;;;3.07;63.60;96830.88;4992517;28;20614;-50
2022/01/29 09:43:17;;;;;;;5.85;2.70;;;;;;;3.22;62.37;96817.56;5012202;28;20042;-49
2022/01/29 09:45:51;;;;;;;5.30;2.33;;;;;;;3.42;63.10;96820.28;5006167;28;20132;-52
2022/01/29 09:48:26;;;;;;;4.82;2.40;;;;;;;3.46;61.70;96817.88;5012881;28;20108;-53
2022/01/29 09:50:53;;;;;;;4.10;2.53;;;;;;;3.24;61.76;96828.78;5009964;28;20092;-55
2022/01/29 09:53:20;;;;;;;7.55;2.35;;;;;;;3.47;62.66;96825.63;5003025;28;20038;-50
2022/01/29 09:55:48;;;;;;;5.10;2.22;;;;;;;3.40;62.03;96833.09;5012494;28;20136;-51
2022/01/29 09:58:15;;;;;;;5.38;1.90;;;;;;;3.47;62.05;96822.13;5012319;28;20046;-53
2022/01/29 10:00:43;;;;;;;6.43;2.03;;;;;;;3.20;62.18;96838.41;5012896;28;20353;-49
2022/01/29 10:03:10;;;;;;;4.05;1.75;;;;;;;3.45;61.46;96848.38;5007972;28;20140;-51
2022/01/29 10:05:40;;;;;;;4.32;1.70;;;;;;;3.43;60.07;96839.78;5007702;28;20046;-52
2022/01/29 10:08:08;;;;;;;7.30;1.92;;;;;;;3.72;60.00;96840.13;4997587;28;20512;-51
2022/01/29 10:10:42;;;;;;;3.33;1.80;;;;;;;3.72;61.02;96840.91;4982443;28;20058;-48
2022/01/29 10:13:33;;;;;;;5.07;1.90;;;;;;;3.74;60.13;96835.31;4980859;28;20068;-49
2022/01/29 10:16:05;;;;;;;4.57;2.33;;;;;;;3.87;60.26;96840.16;4995312;28;20120;-54
2022/01/29 10:18:33;;;;;;;3.03;1.60;;;;;;;3.86;58.62;96843.88;5010418;28;20073;-52
2022/01/29 10:21:10;;;;;;;3.65;1.40;;;;;;;3.77;59.60;96842.81;4996294;28;20404;-54
2022/01/29 10:23:37;;;;;;;3.30;1.50;;;;;;;3.82;58.01;96836.66;5009394;28;20455;-48
2022/01/29 10:26:05;;;;;;;4.25;1.50;;;;;;;3.83;57.72;96838.25;5030479;28;20038;-55
2022/01/29 10:28:32;;;;;;;4.15;1.50;;;;;;;3.87;58.82;96831.31;4975708;28;20042;-51
2022/01/29 10:31:01;;;;;;;3.28;1.25;;;;;;;3.92;56.69;96828.63;5007907;28;20046;-50
2022/01/29 10:33:41;;;;;;;4.18;1.40;;;;;;;3.95;56.66;96828.09;4974571;28;20530;-51
2022/01/29 10:36:14;;;;;;;2.72;1.10;;;;;;;3.92;53.32;96818.72;5010405;28;20040;-56
2022/01/29 10:38:41;;;;;;;1.88;1.20;;;;;;;4.02;52.23;96825.16;5012987;28;20099;-52
2022/01/29 10:41:26;;;;;;;3.60;1.17;;;;;;;4.11;53.67;96820.88;5008808;28;20068;-52
2022/01/29 10:43:59;;;;;;;2.65;1.13;;;;;;;4.17;52.89;96817.91;5001489;28;20045;-53
2022/01/29 10:46:31;;;;;;;3.90;0.93;;;;;;;4.25;53.25;96816.56;5004307;28;20042;-54
2022/01/29 10:48:59;;;;;;;1.15;0.70;;;;;;;4.27;50.42;96810.94;5012447;28;20050;-57
2022/01/29 10:51:27;;;;;;;1.88;0.77;;;;;;;4.44;50.91;96820.28;4977429;28;20129;-52
2022/01/29 10:53:54;;;;;;;1.17;0.70;;;;;;;4.47;50.27;96807.41;5013867;28;20121;-57
2022/01/29 10:56:22;;;;;;;8.43;1.15;;;;;;;4.50;49.93;96798.84;4996934;28;20049;-57
2022/01/29 10:58:50;;;;;;;3.28;0.90;;;;;;;4.56;51.81;96803.13;5012049;28;20096;-52
2022/01/29 11:01:21;;;;;;;3.28;0.70;;;;;;;4.50;48.87;96798.84;4982472;28;20058;-56
2022/01/29 11:03:54;;;;;;;1.50;0.70;;;;;;;4.63;50.18;96803.63;5008847;28;20129;-49
2022/01/29 11:06:31;;;;;;;1.60;0.80;;;;;;;4.59;49.25;96787.28;5008084;28;20443;-51
2022/01/29 11:08:59;;;;;;;2.35;0.90;;;;;;;4.63;49.16;96766.09;5008149;28;20038;-49
2022/01/29 11:11:28;;;;;;;1.38;0.68;;;;;;;4.83;48.85;96770.59;5002503;28;20052;-55
2022/01/29 11:14:12;;;;;;;1.65;0.77;;;;;;;5.07;48.54;96762.69;5011045;28;20077;-52
2022/01/29 11:16:40;;;;;;;1.67;0.70;;;;;;;4.98;48.47;96770.53;4993242;28;20081;-53
2022/01/29 11:19:07;;;;;;;1.75;0.82;;;;;;;4.96;48.34;96761.94;4994637;28;20076;-52
2022/01/29 11:21:36;;;;;;;1.25;0.63;;;;;;;4.99;48.60;96765.97;5004018;28;20558;-54
2022/01/29 11:24:06;;;;;;;1.35;0.68;;;;;;;5.00;46.66;96754.13;5009045;28;20065;-50
2022/01/29 11:26:35;;;;;;;2.70;0.73;;;;;;;4.99;47.22;96757.91;5004318;28;20072;-57
2022/01/29 11:29:40;;;;;;;1.40;0.70;;;;;;;5.04;46.53;96756.00;5009133;28;20415;-55
2022/01/29 11:32:23;;;;;;;1.52;0.93;;;;;;;5.05;45.69;96756.81;4907073;29;20062;-55
2022/01/29 11:35:14;;;;;;;1.23;0.63;;;;;;;5.19;46.43;96757.78;4912913;29;20048;-51
2022/01/29 11:37:46;;;;;;;1.45;0.70;;;;;;;5.31;46.72;96760.16;4985466;28;20054;-55
2022/01/29 11:40:23;;;;;;;1.63;0.70;;;;;;;5.20;45.42;96755.91;5010283;28;20415;-55
2022/01/29 11:43:15;;;;;;;1.73;0.60;;;;;;;5.36;45.20;96762.78;5008588;28;20132;-52
2022/01/29 11:45:46;;;;;;;2.17;0.80;;;;;;;5.72;45.94;96760.69;5009773;28;20033;-50
2022/01/29 11:48:19;;;;;;;1.58;0.55;;;;;;;5.74;46.60;96758.50;5008606;28;20145;-55
2022/01/29 11:50:47;;;;;;;2.72;0.80;;;;;;;5.79;45.28;96763.84;4993523;28;20456;-52
2022/01/29 11:53:17;;;;;;;1.50;0.70;;;;;;;5.74;46.32;96753.13;5009076;28;20502;-53
2022/01/29 11:55:54;;;;;;;0.93;0.63;;;;;;;5.70;44.79;96752.09;5011359;28;20049;-52
2022/01/29 11:58:30;;;;;;;1.25;0.77;;;;;;;5.73;45.32;96735.41;5011063;28;20389;-47
2022/01/29 12:01:02;;;;;;;1.98;0.90;;;;;;;5.89;46.88;96748.72;5010832;28;20112;-47